Private Wetterstation Sandau
Wetterdaten: Freitag, 12.10.2012
Datum Zeit Temp. A. Feuchte A. Luftdruck Regen Wind Richtung Richtung Taupunkt Windchill
12.10.2012 00:01 5,3 C 91 % 1014,5 hPa 0,0 l/m 4,0 km/h (1 Bft) O 90 4,0 C 5,3 C
12.10.2012 00:06 5,3 C 91 % 1014,4 hPa 0,0 l/m 4,7 km/h (1 Bft) O-SO 112 4,0 C 4,5 C
12.10.2012 00:11 5,3 C 91 % 1014,5 hPa 0,0 l/m 2,9 km/h (1 Bft) O-SO 112 4,0 C 5,3 C
12.10.2012 00:16 5,2 C 91 % 1014,4 hPa 0,0 l/m 7,2 km/h (2 Bft) O-SO 112 3,9 C 3,6 C
12.10.2012 00:21 5,2 C 91 % 1014,3 hPa 0,0 l/m 3,2 km/h (1 Bft) O-SO 112 3,9 C 5,2 C
12.10.2012 00:26 5,1 C 91 % 1014,3 hPa 0,0 l/m 5,8 km/h (2 Bft) O-SO 112 3,8 C 3,9 C
12.10.2012 00:31 5,1 C 91 % 1014,3 hPa 0,0 l/m 4,0 km/h (1 Bft) O-SO 112 3,8 C 5,1 C
12.10.2012 00:36 5,0 C 91 % 1014,4 hPa 0,0 l/m 4,3 km/h (1 Bft) SO 135 3,7 C 5,0 C
12.10.2012 00:41 4,9 C 91 % 1014,3 hPa 0,0 l/m 4,7 km/h (1 Bft) O-SO 112 3,6 C 4,1 C
12.10.2012 00:46 4,9 C 91 % 1014,4 hPa 0,0 l/m 3,6 km/h (1 Bft) O-SO 112 3,6 C 4,9 C
12.10.2012 00:51 4,8 C 91 % 1014,2 hPa 0,0 l/m 4,3 km/h (1 Bft) O-SO 112 3,5 C 4,8 C
12.10.2012 00:56 4,8 C 92 % 1014,1 hPa 0,0 l/m 4,0 km/h (1 Bft) O-SO 112 3,6 C 4,8 C
12.10.2012 01:01 4,7 C 92 % 1014,1 hPa 0,0 l/m 4,7 km/h (1 Bft) O-SO 112 3,5 C 3,9 C
12.10.2012 01:06 4,6 C 92 % 1014,1 hPa 0,0 l/m 6,1 km/h (2 Bft) O-SO 112 3,4 C 3,2 C
12.10.2012 01:11 4,6 C 92 % 1014,0 hPa 0,0 l/m 3,2 km/h (1 Bft) O-SO 112 3,4 C 4,6 C
12.10.2012 01:16 4,6 C 92 % 1014,1 hPa 0,0 l/m 4,0 km/h (1 Bft) SO 135 3,4 C 4,6 C
12.10.2012 01:21 4,5 C 92 % 1014,1 hPa 0,0 l/m 3,6 km/h (1 Bft) O-SO 112 3,3 C 4,5 C
12.10.2012 01:26 4,5 C 92 % 1014,1 hPa 0,0 l/m 2,9 km/h (1 Bft) O 90 3,3 C 4,5 C
12.10.2012 01:31 4,5 C 92 % 1014,0 hPa 0,0 l/m 3,6 km/h (1 Bft) O-SO 112 3,3 C 4,5 C
12.10.2012 01:36 4,5 C 92 % 1014,1 hPa 0,0 l/m 2,9 km/h (1 Bft) O-SO 112 3,3 C 4,5 C
12.10.2012 01:41 4,4 C 92 % 1014,0 hPa 0,0 l/m 0,0 km/h (0 Bft) O-SO 112 3,2 C 4,4 C
12.10.2012 01:46 4,4 C 92 % 1014,0 hPa 0,0 l/m 4,0 km/h (1 Bft) O-SO 112 3,2 C 4,4 C
12.10.2012 01:51 4,3 C 92 % 1014,0 hPa 0,0 l/m 2,2 km/h (1 Bft) O-SO 112 3,1 C 4,3 C
12.10.2012 01:56 4,3 C 92 % 1014,1 hPa 0,0 l/m 1,4 km/h (1 Bft) O-SO 112 3,1 C 4,3 C
12.10.2012 02:01 4,2 C 92 % 1013,9 hPa 0,0 l/m 4,3 km/h (1 Bft) O-SO 112 3,0 C 4,2 C
12.10.2012 02:06 4,1 C 92 % 1013,8 hPa 0,0 l/m 0,0 km/h (0 Bft) SO 135 2,9 C 4,1 C
12.10.2012 02:11 4,1 C 92 % 1013,8 hPa 0,0 l/m 0,0 km/h (0 Bft) SO 135 2,9 C 4,1 C
12.10.2012 02:16 3,9 C 92 % 1013,8 hPa 0,0 l/m 0,0 km/h (0 Bft) SO 135 2,7 C 3,9 C
12.10.2012 02:21 3,8 C 92 % 1013,9 hPa 0,0 l/m 1,1 km/h (1 Bft) SO 135 2,6 C 3,8 C
12.10.2012 02:26 3,8 C 91 % 1013,8 hPa 0,0 l/m 3,2 km/h (1 Bft) SO 135 2,5 C 3,8 C
12.10.2012 02:31 3,7 C 91 % 1013,8 hPa 0,0 l/m 4,3 km/h (1 Bft) O-SO 112 2,4 C 3,7 C
12.10.2012 02:36 3,6 C 91 % 1013,8 hPa 0,0 l/m 0,0 km/h (0 Bft) O-SO 112 2,3 C 3,6 C
12.10.2012 02:41 3,6 C 91 % 1013,8 hPa 0,0 l/m 5,0 km/h (1 Bft) O-SO 112 2,3 C 2,5 C
12.10.2012 02:46 3,6 C 92 % 1013,8 hPa 0,0 l/m 2,2 km/h (1 Bft) O-SO 112 2,4 C 3,6 C
12.10.2012 02:51 3,8 C 92 % 1013,8 hPa 0,0 l/m 3,6 km/h (1 Bft) O 90 2,6 C 3,8 C
12.10.2012 02:56 3,8 C 92 % 1013,7 hPa 0,0 l/m 4,3 km/h (1 Bft) O-SO 112 2,6 C 3,8 C
12.10.2012 03:01 3,8 C 92 % 1013,6 hPa 0,0 l/m 4,3 km/h (1 Bft) O-SO 112 2,6 C 3,8 C
12.10.2012 03:06 3,8 C 92 % 1013,6 hPa 0,0 l/m 0,0 km/h (0 Bft) O-NO 67 2,6 C 3,8 C
12.10.2012 03:11 3,8 C 92 % 1013,6 hPa 0,0 l/m 4,0 km/h (1 Bft) O-NO 67 2,6 C 3,8 C
12.10.2012 03:16 3,8 C 92 % 1013,5 hPa 0,0 l/m 1,4 km/h (1 Bft) O-SO 112 2,6 C 3,8 C
12.10.2012 03:21 3,8 C 92 % 1013,5 hPa 0,0 l/m 5,0 km/h (1 Bft) O-SO 112 2,6 C 2,7 C
12.10.2012 03:26 3,7 C 92 % 1013,4 hPa 0,0 l/m 5,8 km/h (2 Bft) O 90 2,5 C 2,3 C
12.10.2012 03:31 3,8 C 92 % 1013,4 hPa 0,0 l/m 6,1 km/h (2 Bft) O-NO 67 2,6 C 2,3 C
12.10.2012 03:36 3,8 C 92 % 1013,3 hPa 0,0 l/m 4,7 km/h (1 Bft) O-NO 67 2,6 C 2,8 C
12.10.2012 03:41 3,8 C 92 % 1013,2 hPa 0,0 l/m 6,5 km/h (2 Bft) O-SO 112 2,6 C 2,2 C
12.10.2012 03:46 3,7 C 92 % 1013,2 hPa 0,0 l/m 4,0 km/h (1 Bft) O-NO 67 2,5 C 3,7 C
12.10.2012 03:51 3,6 C 92 % 1013,0 hPa 0,0 l/m 6,1 km/h (2 Bft) O-NO 67 2,4 C 2,1 C
12.10.2012 03:56 3,6 C 92 % 1013,1 hPa 0,0 l/m 2,9 km/h (1 Bft) O 90 2,4 C 3,6 C
12.10.2012 04:01 3,6 C 92 % 1013,0 hPa 0,0 l/m 5,0 km/h (1 Bft) O-NO 67 2,4 C 2,5 C
12.10.2012 04:06 3,6 C 92 % 1013,1 hPa 0,0 l/m 7,2 km/h (2 Bft) O-NO 67 2,4 C 1,7 C
12.10.2012 04:11 3,6 C 92 % 1013,0 hPa 0,0 l/m 6,8 km/h (2 Bft) O 90 2,4 C 1,8 C
12.10.2012 04:16 3,6 C 93 % 1012,9 hPa 0,0 l/m 6,1 km/h (2 Bft) O-NO 67 2,6 C 2,1 C
12.10.2012 04:21 3,6 C 93 % 1012,9 hPa 0,0 l/m 9,4 km/h (2 Bft) O-SO 112 2,6 C 1,1 C
12.10.2012 04:26 3,8 C 93 % 1012,8 hPa 0,0 l/m 5,4 km/h (1 Bft) O-SO 112 2,8 C 2,6 C
12.10.2012 04:31 3,8 C 93 % 1012,7 hPa 0,0 l/m 7,2 km/h (2 Bft) O-SO 112 2,8 C 2,0 C
12.10.2012 04:36 3,8 C 93 % 1012,8 hPa 0,0 l/m 6,8 km/h (2 Bft) O-NO 67 2,8 C 2,1 C
12.10.2012 04:41 3,9 C 93 % 1012,8 hPa 0,0 l/m 4,0 km/h (1 Bft) O-NO 67 2,9 C 3,9 C
12.10.2012 04:46 3,9 C 93 % 1012,8 hPa 0,0 l/m 5,8 km/h (2 Bft) O 90 2,9 C 2,5 C
12.10.2012 04:51 3,8 C 93 % 1012,7 hPa 0,0 l/m 5,0 km/h (1 Bft) O 90 2,8 C 2,7 C
12.10.2012 04:56 3,8 C 93 % 1012,7 hPa 0,0 l/m 4,7 km/h (1 Bft) O-NO 67 2,8 C 2,8 C
12.10.2012 05:01 3,8 C 93 % 1012,7 hPa 0,0 l/m 6,1 km/h (2 Bft) O-NO 67 2,8 C 2,3 C
12.10.2012 05:06 3,7 C 93 % 1012,7 hPa 0,0 l/m 4,3 km/h (1 Bft) O 90 2,7 C 3,7 C
12.10.2012 05:11 3,6 C 93 % 1012,6 hPa 0,0 l/m 4,7 km/h (1 Bft) O-NO 67 2,6 C 2,6 C
12.10.2012 05:16 3,6 C 93 % 1012,7 hPa 0,0 l/m 4,0 km/h (1 Bft) O-SO 112 2,6 C 3,6 C
12.10.2012 05:21 3,6 C 93 % 1012,7 hPa 0,0 l/m 4,0 km/h (1 Bft) O-SO 112 2,6 C 3,6 C
12.10.2012 05:26 3,6 C 93 % 1012,7 hPa 0,0 l/m 9,7 km/h (2 Bft) O-SO 112 2,6 C 1,1 C
12.10.2012 05:31 3,6 C 93 % 1012,7 hPa 0,0 l/m 4,3 km/h (1 Bft) O-NO 67 2,6 C 3,6 C
12.10.2012 05:36 3,6 C 93 % 1012,7 hPa 0,0 l/m 7,6 km/h (2 Bft) SO 135 2,6 C 1,6 C
12.10.2012 05:41 3,5 C 93 % 1012,6 hPa 0,0 l/m 6,8 km/h (2 Bft) O-SO 112 2,5 C 1,7 C
12.10.2012 05:46 3,5 C 93 % 1012,6 hPa 0,0 l/m 4,7 km/h (1 Bft) NO 45 2,5 C 2,5 C
12.10.2012 05:51 3,5 C 93 % 1012,5 hPa 0,0 l/m 4,0 km/h (1 Bft) SO 135 2,5 C 3,5 C
12.10.2012 05:56 3,5 C 93 % 1012,5 hPa 0,0 l/m 5,4 km/h (1 Bft) O 90 2,5 C 2,2 C
12.10.2012 06:01 3,4 C 93 % 1012,5 hPa 0,0 l/m 3,2 km/h (1 Bft) O-NO 67 2,4 C 3,4 C
12.10.2012 06:06 3,4 C 93 % 1012,4 hPa 0,0 l/m 4,0 km/h (1 Bft) O 90 2,4 C 3,4 C
12.10.2012 06:11 3,3 C 93 % 1012,4 hPa 0,0 l/m 7,2 km/h (2 Bft) O-NO 67 2,3 C 1,4 C
12.10.2012 06:16 3,3 C 93 % 1012,4 hPa 0,0 l/m 2,9 km/h (1 Bft) O-NO 67 2,3 C 3,3 C
12.10.2012 06:21 3,2 C 93 % 1012,4 hPa 0,0 l/m 5,0 km/h (1 Bft) NO 45 2,2 C 2,0 C
12.10.2012 06:26 3,1 C 93 % 1012,3 hPa 0,0 l/m 3,2 km/h (1 Bft) O-NO 67 2,1 C 3,1 C
12.10.2012 06:31 3,1 C 93 % 1012,1 hPa 0,0 l/m 7,9 km/h (2 Bft) O 90 2,1 C 0,9 C
12.10.2012 06:36 3,1 C 93 % 1012,1 hPa 0,0 l/m 2,9 km/h (1 Bft) O-SO 112 2,1 C 3,1 C
12.10.2012 06:41 3,1 C 93 % 1012,1 hPa 0,0 l/m 7,6 km/h (2 Bft) O 90 2,1 C 1,0 C
12.10.2012 06:46 3,1 C 93 % 1012,1 hPa 0,0 l/m 8,3 km/h (2 Bft) O-SO 112 2,1 C 0,8 C
12.10.2012 06:51 3,0 C 93 % 1012,1 hPa 0,0 l/m 4,3 km/h (1 Bft) O 90 2,0 C 3,0 C
12.10.2012 06:56 3,0 C 93 % 1012,0 hPa 0,0 l/m 3,2 km/h (1 Bft) O-NO 67 2,0 C 3,0 C
12.10.2012 07:01 3,0 C 93 % 1012,0 hPa 0,0 l/m 6,5 km/h (2 Bft) O-NO 67 2,0 C 1,2 C
12.10.2012 07:06 3,0 C 93 % 1012,0 hPa 0,0 l/m 2,9 km/h (1 Bft) SO 135 2,0 C 3,0 C
12.10.2012 07:11 3,1 C 93 % 1011,9 hPa 0,0 l/m 5,4 km/h (1 Bft) O 90 2,1 C 1,8 C
12.10.2012 07:16 3,0 C 93 % 1012,0 hPa 0,0 l/m 3,2 km/h (1 Bft) O-NO 67 2,0 C 3,0 C
12.10.2012 07:21 2,9 C 93 % 1012,0 hPa 0,0 l/m 3,2 km/h (1 Bft) O-NO 67 1,9 C 2,9 C
12.10.2012 07:26 2,9 C 93 % 1012,0 hPa 0,0 l/m 4,7 km/h (1 Bft) O-SO 112 1,9 C 1,8 C
12.10.2012 07:31 2,9 C 93 % 1011,8 hPa 0,0 l/m 9,0 km/h (2 Bft) O-NO 67 1,9 C 0,4 C
12.10.2012 07:36 2,9 C 93 % 1012,0 hPa 0,0 l/m 6,1 km/h (2 Bft) NO 45 1,9 C 1,3 C
12.10.2012 07:41 2,9 C 93 % 1011,9 hPa 0,0 l/m 7,2 km/h (2 Bft) O-NO 67 1,9 C 0,9 C
12.10.2012 07:46 2,9 C 93 % 1012,0 hPa 0,0 l/m 3,2 km/h (1 Bft) O-NO 67 1,9 C 2,9 C
12.10.2012 07:51 2,9 C 93 % 1012,0 hPa 0,0 l/m 4,0 km/h (1 Bft) O-NO 67 1,9 C 2,9 C
12.10.2012 07:56 2,9 C 93 % 1011,9 hPa 0,0 l/m 7,2 km/h (2 Bft) O-NO 67 1,9 C 0,9 C
12.10.2012 08:01 2,9 C 93 % 1011,9 hPa 0,0 l/m 5,4 km/h (1 Bft) SO 135 1,9 C 1,5 C
12.10.2012 08:06 2,9 C 93 % 1011,9 hPa 0,0 l/m 3,6 km/h (1 Bft) O-NO 67 1,9 C 2,9 C
12.10.2012 08:11 3,0 C 93 % 1011,9 hPa 0,0 l/m 8,6 km/h (2 Bft) SO 135 2,0 C 0,6 C
12.10.2012 08:16 3,1 C 93 % 1011,8 hPa 0,0 l/m 6,1 km/h (2 Bft) O-SO 112 2,1 C 1,5 C
12.10.2012 08:21 3,2 C 93 % 1011,9 hPa 0,0 l/m 14,8 km/h (3 Bft) O-NO 67 2,2 C -0,4 C
12.10.2012 08:26 3,3 C 93 % 1011,9 hPa 0,0 l/m 13,0 km/h (3 Bft) SO 135 2,3 C 0,0 C
12.10.2012 08:31 3,3 C 93 % 1012,0 hPa 0,0 l/m 20,5 km/h (4 Bft) SO 135 2,3 C -1,1 C
12.10.2012 08:36 3,4 C 93 % 1011,7 hPa 0,0 l/m 6,8 km/h (2 Bft) SO 135 2,4 C 1,6 C
12.10.2012 08:41 3,5 C 93 % 1011,7 hPa 0,0 l/m 6,5 km/h (2 Bft) O-SO 112 2,5 C 1,8 C
12.10.2012 08:46 3,6 C 93 % 1011,8 hPa 0,0 l/m 6,1 km/h (2 Bft) O 90 2,6 C 2,1 C
12.10.2012 08:51 3,6 C 93 % 1011,8 hPa 0,0 l/m 12,6 km/h (3 Bft) O-SO 112 2,6 C 0,4 C
12.10.2012 08:56 3,8 C 93 % 1011,8 hPa 0,0 l/m 8,3 km/h (2 Bft) O-SO 112 2,8 C 1,6 C
12.10.2012 09:01 3,8 C 93 % 1011,8 hPa 0,0 l/m 8,3 km/h (2 Bft) SO 135 2,8 C 1,6 C
12.10.2012 09:06 3,9 C 93 % 1011,7 hPa 0,0 l/m 7,6 km/h (2 Bft) SO 135 2,9 C 2,0 C
12.10.2012 09:11 3,9 C 93 % 1011,7 hPa 0,0 l/m 8,3 km/h (2 Bft) O 90 2,9 C 1,8 C
12.10.2012 09:16 4,1 C 93 % 1011,8 hPa 0,0 l/m 5,4 km/h (1 Bft) O 90 3,1 C 2,9 C
12.10.2012 09:21 4,2 C 93 % 1011,9 hPa 0,0 l/m 11,2 km/h (2 Bft) O-NO 67 3,2 C 1,4 C
12.10.2012 09:26 4,3 C 93 % 1011,6 hPa 0,0 l/m 7,9 km/h (2 Bft) O-SO 112 3,3 C 2,3 C
12.10.2012 09:31 4,4 C 92 % 1011,6 hPa 0,0 l/m 6,8 km/h (2 Bft) O 90 3,2 C 2,8 C
12.10.2012 09:36 4,6 C 92 % 1011,6 hPa 0,0 l/m 4,0 km/h (1 Bft) SO 135 3,4 C 4,6 C
12.10.2012 09:41 4,8 C 92 % 1011,6 hPa 0,0 l/m 6,5 km/h (2 Bft) O 90 3,6 C 3,3 C
12.10.2012 09:46 4,9 C 92 % 1011,5 hPa 0,0 l/m 4,0 km/h (1 Bft) SO 135 3,7 C 4,9 C
12.10.2012 09:51 5,1 C 92 % 1011,5 hPa 0,0 l/m 10,1 km/h (2 Bft) SO 135 3,9 C 2,8 C
12.10.2012 09:56 5,2 C 92 % 1011,4 hPa 0,0 l/m 14,4 km/h (3 Bft) O-SO 112 4,0 C 2,1 C
12.10.2012 10:01 5,3 C 91 % 1011,3 hPa 0,0 l/m 11,9 km/h (2 Bft) O-SO 112 4,0 C 2,6 C
12.10.2012 10:06 5,5 C 91 % 1011,5 hPa 0,0 l/m 7,2 km/h (2 Bft) NO 45 4,2 C 3,9 C
12.10.2012 10:11 5,8 C 91 % 1011,4 hPa 0,0 l/m 12,2 km/h (2 Bft) O-SO 112 4,4 C 3,2 C
12.10.2012 10:16 5,9 C 90 % 1011,3 hPa 0,0 l/m 5,0 km/h (1 Bft) SO 135 4,4 C 5,1 C
12.10.2012 10:21 6,0 C 90 % 1011,3 hPa 0,0 l/m 15,8 km/h (3 Bft) S-SO 157 4,5 C 2,9 C
12.10.2012 10:26 6,2 C 90 % 1011,3 hPa 0,0 l/m 5,4 km/h (1 Bft) SO 135 4,7 C 5,3 C
12.10.2012 10:31 6,3 C 89 % 1011,3 hPa 0,0 l/m 14,8 km/h (3 Bft) SO 135 4,6 C 3,4 C
12.10.2012 10:36 6,6 C 89 % 1011,4 hPa 0,0 l/m 9,0 km/h (2 Bft) O-SO 112 4,9 C 4,8 C
12.10.2012 10:41 6,8 C 89 % 1011,2 hPa 0,0 l/m 17,3 km/h (3 Bft) SO 135 5,1 C 3,7 C
12.10.2012 10:46 7,0 C 88 % 1011,2 hPa 0,0 l/m 5,0 km/h (1 Bft) SO 135 5,2 C 6,4 C
12.10.2012 10:51 7,2 C 87 % 1011,3 hPa 0,0 l/m 6,1 km/h (2 Bft) SO 135 5,2 C 6,2 C
12.10.2012 10:56 7,4 C 86 % 1011,2 hPa 0,0 l/m 6,5 km/h (2 Bft) SO 135 5,2 C 6,3 C
12.10.2012 11:01 7,6 C 86 % 1011,2 hPa 0,0 l/m 9,7 km/h (2 Bft) SO 135 5,4 C 5,8 C
12.10.2012 11:06 7,8 C 85 % 1011,0 hPa 0,0 l/m 8,3 km/h (2 Bft) S-SO 157 5,4 C 6,4 C
12.10.2012 11:11 7,9 C 84 % 1011,0 hPa 0,0 l/m 5,0 km/h (1 Bft) O 90 5,4 C 7,4 C
12.10.2012 11:16 7,9 C 83 % 1011,1 hPa 0,0 l/m 5,0 km/h (1 Bft) O 90 5,2 C 7,4 C
12.10.2012 11:21 8,1 C 83 % 1010,9 hPa 0,0 l/m 11,5 km/h (2 Bft) O 90 5,4 C 6,1 C
12.10.2012 11:26 8,3 C 83 % 1011,0 hPa 0,0 l/m 9,7 km/h (2 Bft) S 180 5,6 C 6,7 C
12.10.2012 11:31 8,5 C 82 % 1010,9 hPa 0,0 l/m 15,5 km/h (3 Bft) S-SO 157 5,6 C 6,0 C
12.10.2012 11:36 8,7 C 82 % 1010,7 hPa 0,0 l/m 10,8 km/h (2 Bft) S-SO 157 5,8 C 6,9 C
12.10.2012 11:41 8,8 C 81 % 1010,6 hPa 0,0 l/m 10,1 km/h (2 Bft) O-SO 112 5,7 C 7,2 C
12.10.2012 11:46 8,8 C 80 % 1010,7 hPa 0,0 l/m 6,8 km/h (2 Bft) O-SO 112 5,5 C 7,9 C
12.10.2012 11:51 8,8 C 80 % 1010,5 hPa 0,0 l/m 23,0 km/h (4 Bft) SO 135 5,5 C 5,6 C
12.10.2012 11:56 8,9 C 79 % 1010,4 hPa 0,0 l/m 9,4 km/h (2 Bft) SO 135 5,5 C 7,4 C
12.10.2012 12:01 9,1 C 80 % 1010,3 hPa 0,0 l/m 11,2 km/h (2 Bft) SO 135 5,8 C 7,4 C
12.10.2012 12:06 9,2 C 79 % 1010,3 hPa 0,0 l/m 8,3 km/h (2 Bft) S-SO 157 5,8 C 8,0 C
12.10.2012 12:11 9,3 C 79 % 1010,2 hPa 0,0 l/m 9,4 km/h (2 Bft) SO 135 5,8 C 7,9 C
12.10.2012 12:16 9,3 C 78 % 1010,2 hPa 0,0 l/m 6,1 km/h (2 Bft) O 90 5,7 C 8,6 C
12.10.2012 12:21 9,3 C 78 % 1010,1 hPa 0,0 l/m 10,8 km/h (2 Bft) S-SO 157 5,7 C 7,7 C
12.10.2012 12:26 9,3 C 78 % 1010,0 hPa 0,0 l/m 9,7 km/h (2 Bft) O-SO 112 5,7 C 7,8 C
12.10.2012 12:31 9,5 C 79 % 1010,1 hPa 0,0 l/m 19,1 km/h (3 Bft) S-SO 157 6,0 C 6,8 C
12.10.2012 12:36 9,6 C 78 % 1010,0 hPa 0,0 l/m 8,6 km/h (2 Bft) SO 135 6,0 C 8,4 C
12.10.2012 12:41 9,7 C 78 % 1009,8 hPa 0,0 l/m 5,0 km/h (1 Bft) O 90 6,1 C 9,4 C
12.10.2012 12:46 9,8 C 76 % 1009,8 hPa 0,0 l/m 10,8 km/h (2 Bft) O 90 5,8 C 8,3 C
12.10.2012 12:51 9,9 C 76 % 1009,7 hPa 0,0 l/m 13,7 km/h (3 Bft) S-SO 157 5,9 C 8,0 C
12.10.2012 12:56 10,1 C 76 % 1009,7 hPa 0,0 l/m 7,6 km/h (2 Bft) SO 135 6,1 C 10,1 C
12.10.2012 13:01 10,2 C 76 % 1009,5 hPa 0,0 l/m 7,9 km/h (2 Bft) O 90 6,2 C 10,2 C
12.10.2012 13:06 10,3 C 74 % 1009,5 hPa 0,0 l/m 7,6 km/h (2 Bft) S-SO 157 5,9 C 10,3 C
12.10.2012 13:11 10,4 C 74 % 1009,6 hPa 0,0 l/m 11,9 km/h (2 Bft) S-SO 157 6,0 C 10,4 C
12.10.2012 13:16 10,5 C 74 % 1009,5 hPa 0,0 l/m 6,5 km/h (2 Bft) O 90 6,1 C 10,5 C
12.10.2012 13:21 10,6 C 74 % 1009,3 hPa 0,0 l/m 15,5 km/h (3 Bft) S-SO 157 6,2 C 10,6 C
12.10.2012 13:26 10,6 C 74 % 1009,3 hPa 0,0 l/m 2,9 km/h (1 Bft) O-SO 112 6,2 C 10,6 C
12.10.2012 13:31 10,7 C 74 % 1009,3 hPa 0,0 l/m 6,8 km/h (2 Bft) SO 135 6,3 C 10,7 C
12.10.2012 13:36 10,8 C 74 % 1009,1 hPa 0,0 l/m 16,9 km/h (3 Bft) S-SO 157 6,4 C 10,8 C
12.10.2012 13:41 10,9 C 73 % 1008,9 hPa 0,0 l/m 2,5 km/h (1 Bft) SO 135 6,3 C 10,9 C
12.10.2012 13:46 11,0 C 74 % 1008,9 hPa 0,0 l/m 12,6 km/h (3 Bft) O 90 6,5 C 11,0 C
12.10.2012 13:51 11,2 C 73 % 1008,9 hPa 0,0 l/m 7,2 km/h (2 Bft) SO 135 6,5 C 11,2 C
12.10.2012 13:56 11,3 C 72 % 1008,9 hPa 0,0 l/m 11,2 km/h (2 Bft) S-SO 157 6,4 C 11,3 C
12.10.2012 14:01 11,3 C 72 % 1008,8 hPa 0,0 l/m 11,9 km/h (2 Bft) SO 135 6,4 C 11,3 C
12.10.2012 14:06 11,3 C 72 % 1008,8 hPa 0,0 l/m 15,1 km/h (3 Bft) SO 135 6,4 C 11,3 C
12.10.2012 14:11 11,4 C 72 % 1008,6 hPa 0,0 l/m 18,4 km/h (3 Bft) O-SO 112 6,5 C 11,4 C
12.10.2012 14:16 11,5 C 72 % 1008,7 hPa 0,0 l/m 10,8 km/h (2 Bft) O-SO 112 6,6 C 11,5 C
12.10.2012 14:21 11,6 C 71 % 1008,6 hPa 0,0 l/m 12,2 km/h (2 Bft) O-NO 67 6,5 C 11,6 C
12.10.2012 14:26 11,6 C 71 % 1008,5 hPa 0,0 l/m 8,6 km/h (2 Bft) SO 135 6,5 C 11,6 C
12.10.2012 14:31 11,7 C 71 % 1008,5 hPa 0,0 l/m 8,6 km/h (2 Bft) S-SO 157 6,6 C 11,7 C
12.10.2012 14:36 11,6 C 71 % 1008,4 hPa 0,0 l/m 16,9 km/h (3 Bft) S-SO 157 6,5 C 11,6 C
12.10.2012 14:41 11,6 C 71 % 1008,3 hPa 0,0 l/m 6,5 km/h (2 Bft) SO 135 6,5 C 11,6 C
12.10.2012 14:46 11,5 C 71 % 1008,2 hPa 0,0 l/m 9,4 km/h (2 Bft) SO 135 6,4 C 11,5 C
12.10.2012 14:51 11,3 C 71 % 1008,3 hPa 0,0 l/m 16,9 km/h (3 Bft) S 180 6,2 C 11,3 C
12.10.2012 14:56 11,4 C 71 % 1008,4 hPa 0,0 l/m 15,5 km/h (3 Bft) S-SO 157 6,3 C 11,4 C
12.10.2012 15:01 11,4 C 71 % 1008,4 hPa 0,0 l/m 4,3 km/h (1 Bft) SO 135 6,3 C 11,4 C
12.10.2012 15:06 11,4 C 71 % 1008,3 hPa 0,0 l/m 20,9 km/h (4 Bft) S 180 6,3 C 11,4 C
12.10.2012 15:11 11,5 C 70 % 1008,3 hPa 0,0 l/m 12,2 km/h (2 Bft) S-SO 157 6,2 C 11,5 C
12.10.2012 15:16 11,5 C 70 % 1008,3 hPa 0,0 l/m 5,0 km/h (1 Bft) O-SO 112 6,2 C 11,5 C
12.10.2012 15:21 11,5 C 70 % 1008,3 hPa 0,0 l/m 12,2 km/h (2 Bft) SO 135 6,2 C 11,5 C
12.10.2012 15:26 11,4 C 71 % 1008,1 hPa 0,0 l/m 7,2 km/h (2 Bft) S-SO 157 6,3 C 11,4 C
12.10.2012 15:31 11,4 C 71 % 1008,1 hPa 0,0 l/m 5,4 km/h (1 Bft) SO 135 6,3 C 11,4 C
12.10.2012 15:36 11,4 C 71 % 1007,8 hPa 0,0 l/m 7,6 km/h (2 Bft) S-SO 157 6,3 C 11,4 C
12.10.2012 15:41 11,3 C 73 % 1007,9 hPa 0,0 l/m 15,5 km/h (3 Bft) SO 135 6,6 C 11,3 C
12.10.2012 15:46 11,3 C 73 % 1008,0 hPa 0,0 l/m 19,4 km/h (3 Bft) SO 135 6,6 C 11,3 C
12.10.2012 15:51 11,3 C 73 % 1007,8 hPa 0,0 l/m 10,8 km/h (2 Bft) SO 135 6,6 C 11,3 C
12.10.2012 15:56 11,3 C 74 % 1007,9 hPa 0,0 l/m 7,2 km/h (2 Bft) SO 135 6,8 C 11,3 C
12.10.2012 16:01 11,3 C 74 % 1007,8 hPa 0,0 l/m 14,4 km/h (3 Bft) SO 135 6,8 C 11,3 C
12.10.2012 16:06 11,3 C 74 % 1007,8 hPa 0,0 l/m 10,4 km/h (2 Bft) SO 135 6,8 C 11,3 C
12.10.2012 16:11 11,3 C 74 % 1007,8 hPa 0,0 l/m 15,5 km/h (3 Bft) SO 135 6,8 C 11,3 C
12.10.2012 16:16 11,3 C 74 % 1007,9 hPa 0,0 l/m 6,1 km/h (2 Bft) SO 135 6,8 C 11,3 C
12.10.2012 16:21 11,3 C 74 % 1008,0 hPa 0,0 l/m 8,6 km/h (2 Bft) O-SO 112 6,8 C 11,3 C
12.10.2012 16:26 11,2 C 75 % 1008,0 hPa 0,0 l/m 2,9 km/h (1 Bft) O-SO 112 6,9 C 11,2 C
12.10.2012 16:31 11,2 C 75 % 1007,8 hPa 0,0 l/m 4,7 km/h (1 Bft) SO 135 6,9 C 11,2 C
12.10.2012 16:36 11,1 C 76 % 1007,9 hPa 0,0 l/m 9,7 km/h (2 Bft) SO 135 7,0 C 11,1 C
12.10.2012 16:41 10,9 C 77 % 1007,8 hPa 0,0 l/m 6,5 km/h (2 Bft) S-SO 157 7,0 C 10,9 C
12.10.2012 16:46 10,9 C 77 % 1007,7 hPa 0,5 l/m 1,8 km/h (1 Bft) O-SO 112 7,0 C 10,9 C
12.10.2012 16:51 10,8 C 78 % 1007,8 hPa 0,0 l/m 3,6 km/h (1 Bft) S 180 7,1 C 10,8 C
12.10.2012 16:56 10,7 C 79 % 1007,9 hPa 0,0 l/m 8,3 km/h (2 Bft) SO 135 7,2 C 10,7 C
12.10.2012 17:01 10,6 C 79 % 1007,8 hPa 0,0 l/m 5,0 km/h (1 Bft) SO 135 7,1 C 10,6 C
12.10.2012 17:06 10,5 C 79 % 1007,9 hPa 0,0 l/m 6,1 km/h (2 Bft) SO 135 7,0 C 10,5 C
12.10.2012 17:11 10,4 C 80 % 1007,7 hPa 0,5 l/m 3,2 km/h (1 Bft) S-SO 157 7,1 C 10,4 C
12.10.2012 17:16 10,3 C 81 % 1007,8 hPa 0,0 l/m 4,3 km/h (1 Bft) S-SO 157 7,2 C 10,3 C
12.10.2012 17:21 10,3 C 82 % 1007,7 hPa 0,0 l/m 8,3 km/h (2 Bft) S 180 7,4 C 10,3 C
12.10.2012 17:26 10,1 C 82 % 1007,9 hPa 0,0 l/m 6,5 km/h (2 Bft) SO 135 7,2 C 10,1 C
12.10.2012 17:31 10,1 C 82 % 1007,9 hPa 0,0 l/m 5,0 km/h (1 Bft) SO 135 7,2 C 10,1 C
12.10.2012 17:36 10,0 C 83 % 1008,1 hPa 0,5 l/m 6,1 km/h (2 Bft) S 180 7,2 C 9,4 C
12.10.2012 17:41 9,9 C 83 % 1008,1 hPa 0,0 l/m 4,3 km/h (1 Bft) O-SO 112 7,2 C 9,9 C
12.10.2012 17:46 9,9 C 84 % 1008,1 hPa 0,5 l/m 5,4 km/h (1 Bft) SO 135 7,3 C 9,5 C
12.10.2012 17:51 9,8 C 85 % 1008,1 hPa 0,5 l/m 2,5 km/h (1 Bft) S-SO 157 7,4 C 9,8 C
12.10.2012 17:56 9,6 C 85 % 1008,2 hPa 0,0 l/m 5,8 km/h (2 Bft) SO 135 7,2 C 9,1 C
12.10.2012 18:01 9,6 C 86 % 1008,1 hPa 0,5 l/m 2,9 km/h (1 Bft) O-SO 112 7,4 C 9,6 C
12.10.2012 18:06 9,5 C 86 % 1008,2 hPa 0,0 l/m 3,2 km/h (1 Bft) O-SO 112 7,3 C 9,5 C
12.10.2012 18:11 9,5 C 87 % 1008,1 hPa 0,5 l/m 7,2 km/h (2 Bft) SO 135 7,4 C 8,6 C
12.10.2012 18:16 9,4 C 87 % 1008,1 hPa 0,0 l/m 5,4 km/h (1 Bft) SO 135 7,3 C 9,0 C
12.10.2012 18:21 9,4 C 87 % 1008,1 hPa 0,0 l/m 6,8 km/h (2 Bft) SO 135 7,3 C 8,6 C
12.10.2012 18:26 9,3 C 88 % 1008,1 hPa 0,0 l/m 9,7 km/h (2 Bft) SO 135 7,4 C 7,8 C
12.10.2012 18:31 9,3 C 88 % 1008,2 hPa 0,0 l/m 9,7 km/h (2 Bft) SO 135 7,4 C 7,8 C
12.10.2012 18:36 9,3 C 88 % 1008,2 hPa 0,0 l/m 4,7 km/h (1 Bft) SO 135 7,4 C 9,1 C
12.10.2012 18:41 9,3 C 89 % 1008,3 hPa 0,5 l/m 5,4 km/h (1 Bft) SO 135 7,6 C 8,8 C
12.10.2012 18:46 9,2 C 89 % 1008,4 hPa 0,0 l/m 9,4 km/h (2 Bft) S-SO 157 7,5 C 7,8 C
12.10.2012 18:51 9,2 C 89 % 1008,4 hPa 0,0 l/m 8,3 km/h (2 Bft) SO 135 7,5 C 8,0 C
12.10.2012 18:56 9,2 C 89 % 1008,3 hPa 0,0 l/m 2,9 km/h (1 Bft) SO 135 7,5 C 9,2 C
12.10.2012 19:01 9,2 C 89 % 1008,3 hPa 0,0 l/m 7,9 km/h (2 Bft) SO 135 7,5 C 8,1 C
12.10.2012 19:06 9,2 C 89 % 1008,4 hPa 0,0 l/m 4,3 km/h (1 Bft) O-SO 112 7,5 C 9,2 C
12.10.2012 19:11 9,1 C 89 % 1008,3 hPa 0,0 l/m 4,7 km/h (1 Bft) SO 135 7,4 C 8,8 C
12.10.2012 19:16 9,1 C 90 % 1008,1 hPa 0,0 l/m 4,0 km/h (1 Bft) O-SO 112 7,5 C 9,1 C
12.10.2012 19:21 9,1 C 90 % 1008,1 hPa 0,0 l/m 6,5 km/h (2 Bft) S-SO 157 7,5 C 8,3 C
12.10.2012 19:26 9,1 C 90 % 1008,1 hPa 0,5 l/m 7,9 km/h (2 Bft) S-SO 157 7,5 C 8,0 C
12.10.2012 19:31 9,1 C 90 % 1008,1 hPa 0,0 l/m 4,0 km/h (1 Bft) O-SO 112 7,5 C 9,1 C
12.10.2012 19:36 9,1 C 90 % 1008,1 hPa 0,0 l/m 1,1 km/h (1 Bft) SO 135 7,5 C 9,1 C
12.10.2012 19:41 9,1 C 90 % 1008,2 hPa 0,0 l/m 3,2 km/h (1 Bft) O-SO 112 7,5 C 9,1 C
12.10.2012 19:46 9,2 C 90 % 1008,1 hPa 0,0 l/m 4,7 km/h (1 Bft) S-SO 157 7,6 C 8,9 C
12.10.2012 19:51 9,2 C 91 % 1008,1 hPa 0,0 l/m 4,0 km/h (1 Bft) S-SO 157 7,8 C 9,2 C
12.10.2012 19:56 9,2 C 91 % 1008,1 hPa 0,0 l/m 0,0 km/h (0 Bft) S 180 7,8 C 9,2 C
12.10.2012 20:01 9,2 C 91 % 1008,1 hPa 0,0 l/m 3,6 km/h (1 Bft) S-SO 157 7,8 C 9,2 C
12.10.2012 20:06 9,2 C 91 % 1008,0 hPa 0,0 l/m 6,1 km/h (2 Bft) S-SO 157 7,8 C 8,5 C
12.10.2012 20:11 9,3 C 91 % 1008,0 hPa 0,0 l/m 6,5 km/h (2 Bft) S-SO 157 7,9 C 8,5 C
12.10.2012 20:16 9,3 C 91 % 1008,0 hPa 0,0 l/m 10,1 km/h (2 Bft) S-SO 157 7,9 C 7,8 C
12.10.2012 20:21 9,3 C 91 % 1008,0 hPa 0,0 l/m 3,2 km/h (1 Bft) S 180 7,9 C 9,3 C
12.10.2012 20:26 9,4 C 91 % 1008,0 hPa 0,0 l/m 1,4 km/h (1 Bft) S-SO 157 8,0 C 9,4 C
12.10.2012 20:31 9,4 C 91 % 1008,1 hPa 0,5 l/m 0,0 km/h (0 Bft) S-SO 157 8,0 C 9,4 C
12.10.2012 20:36 9,4 C 91 % 1008,1 hPa 0,0 l/m 0,0 km/h (0 Bft) S-SO 157 8,0 C 9,4 C
12.10.2012 20:41 9,4 C 91 % 1008,1 hPa 0,0 l/m 5,4 km/h (1 Bft) S-SW 202 8,0 C 9,0 C
12.10.2012 20:46 9,4 C 91 % 1008,0 hPa 0,0 l/m 4,3 km/h (1 Bft) S 180 8,0 C 9,4 C
12.10.2012 20:51 9,5 C 91 % 1008,1 hPa 0,0 l/m 4,0 km/h (1 Bft) S 180 8,1 C 9,5 C
12.10.2012 20:56 9,5 C 91 % 1008,1 hPa 0,0 l/m 4,0 km/h (1 Bft) S 180 8,1 C 9,5 C
12.10.2012 21:01 9,5 C 91 % 1008,2 hPa 0,0 l/m 6,1 km/h (2 Bft) S-SO 157 8,1 C 8,9 C
12.10.2012 21:06 9,5 C 91 % 1008,1 hPa 0,0 l/m 3,2 km/h (1 Bft) S 180 8,1 C 9,5 C
12.10.2012 21:11 9,6 C 91 % 1008,0 hPa 0,0 l/m 3,6 km/h (1 Bft) S 180 8,2 C 9,6 C
12.10.2012 21:16 9,5 C 92 % 1008,0 hPa 0,0 l/m 5,0 km/h (1 Bft) S 180 8,3 C 9,2 C
12.10.2012 21:21 9,6 C 92 % 1008,1 hPa 0,0 l/m 4,3 km/h (1 Bft) S-SW 202 8,4 C 9,6 C
12.10.2012 21:26 9,5 C 92 % 1008,1 hPa 0,0 l/m 5,4 km/h (1 Bft) S 180 8,3 C 9,1 C
12.10.2012 21:31 9,5 C 92 % 1008,2 hPa 0,0 l/m 4,0 km/h (1 Bft) SO 135 8,3 C 9,5 C
12.10.2012 21:36 9,6 C 92 % 1008,0 hPa 0,0 l/m 4,0 km/h (1 Bft) S-SO 157 8,4 C 9,6 C
12.10.2012 21:41 9,6 C 92 % 1008,2 hPa 0,0 l/m 3,6 km/h (1 Bft) S 180 8,4 C 9,6 C
12.10.2012 21:46 9,6 C 92 % 1008,2 hPa 0,0 l/m 3,2 km/h (1 Bft) SO 135 8,4 C 9,6 C
12.10.2012 21:51 9,6 C 92 % 1008,1 hPa 0,0 l/m 6,1 km/h (2 Bft) S-SW 202 8,4 C 9,0 C
12.10.2012 21:56 9,6 C 92 % 1008,1 hPa 0,0 l/m 0,0 km/h (0 Bft) S 180 8,4 C 9,6 C
12.10.2012 22:01 9,6 C 92 % 1008,2 hPa 0,0 l/m 3,6 km/h (1 Bft) S-SO 157 8,4 C 9,6 C
12.10.2012 22:06 9,6 C 92 % 1008,3 hPa 0,0 l/m 5,8 km/h (2 Bft) S-SW 202 8,4 C 9,1 C
12.10.2012 22:11 9,6 C 92 % 1008,2 hPa 0,0 l/m 0,0 km/h (0 Bft) S-SO 157 8,4 C 9,6 C
12.10.2012 22:16 9,6 C 92 % 1008,3 hPa 0,0 l/m 2,5 km/h (1 Bft) S 180 8,4 C 9,6 C
12.10.2012 22:21 9,6 C 92 % 1008,1 hPa 0,0 l/m 6,1 km/h (2 Bft) S 180 8,4 C 9,0 C
12.10.2012 22:26 9,6 C 92 % 1008,4 hPa 0,0 l/m 2,2 km/h (1 Bft) S 180 8,4 C 9,6 C
12.10.2012 22:31 9,6 C 92 % 1008,4 hPa 0,0 l/m 4,0 km/h (1 Bft) SW 225 8,4 C 9,6 C
12.10.2012 22:36 9,6 C 92 % 1008,5 hPa 0,0 l/m 3,2 km/h (1 Bft) S 180 8,4 C 9,6 C
12.10.2012 22:41 9,6 C 92 % 1008,3 hPa 0,0 l/m 4,0 km/h (1 Bft) S-SO 157 8,4 C 9,6 C
12.10.2012 22:46 9,6 C 92 % 1008,3 hPa 0,0 l/m 3,2 km/h (1 Bft) S 180 8,4 C 9,6 C
12.10.2012 22:51 9,6 C 92 % 1008,4 hPa 0,0 l/m 7,9 km/h (2 Bft) W-SW 247 8,4 C 8,6 C
12.10.2012 22:56 9,7 C 92 % 1008,4 hPa 0,0 l/m 8,6 km/h (2 Bft) S-SW 202 8,5 C 8,5 C
12.10.2012 23:01 9,7 C 92 % 1008,4 hPa 0,0 l/m 9,4 km/h (2 Bft) W-SW 247 8,5 C 8,4 C
12.10.2012 23:06 9,7 C 92 % 1008,5 hPa 0,0 l/m 6,1 km/h (2 Bft) W-SW 247 8,5 C 9,1 C
12.10.2012 23:11 9,7 C 92 % 1008,7 hPa 0,0 l/m 7,6 km/h (2 Bft) SW 225 8,5 C 8,7 C
12.10.2012 23:16 9,7 C 92 % 1008,7 hPa 0,0 l/m 9,4 km/h (2 Bft) S-SW 202 8,5 C 8,4 C
12.10.2012 23:21 9,7 C 92 % 1008,8 hPa 0,0 l/m 6,8 km/h (2 Bft) S-SW 202 8,5 C 8,9 C
12.10.2012 23:26 9,8 C 92 % 1008,7 hPa 0,0 l/m 8,6 km/h (2 Bft) SW 225 8,6 C 8,7 C
12.10.2012 23:31 9,8 C 92 % 1008,8 hPa 0,0 l/m 19,1 km/h (3 Bft) W-SW 247 8,6 C 7,2 C
12.10.2012 23:36 9,8 C 92 % 1008,8 hPa 0,0 l/m 13,0 km/h (3 Bft) SW 225 8,6 C 7,9 C
12.10.2012 23:41 9,9 C 92 % 1008,9 hPa 0,0 l/m 13,0 km/h (3 Bft) SW 225 8,7 C 8,1 C
12.10.2012 23:46 9,9 C 92 % 1008,7 hPa 0,0 l/m 9,7 km/h (2 Bft) W-SW 247 8,7 C 8,6 C
12.10.2012 23:51 9,9 C 92 % 1008,8 hPa 0,0 l/m 14,4 km/h (3 Bft) W-SW 247 8,7 C 7,9 C
12.10.2012 23:56 10,0 C 92 % 1008,9 hPa 0,0 l/m 11,9 km/h (2 Bft) W-SW 247 8,8 C 8,3 C
_ Min-Zeit 07:21 15:11 16:46 - 01:41 - - 07:21 08:31
Minimum _ 2,9 C 70 % 1007,7 hPa - 0,0 km/h (0 Bft) - - 1,9 C -1,1 C
_ Max-Zeit 14:31 04:16 00:01 16:46 11:51 - - 23:56 14:31
Maximum _ 11,7 C 93 % 1014,5 hPa 0,5 l/m 23,0 km/h
SO (4 Bft)
- - 8,8 C 11,7 C
Durchschnitt _ 7,3 C 87 % 1010,5 hPa #5,2 l/m 6,8 km/h (2 Bft) SO - 5,2 C 6,5 C
(c) by David Heller